Terminal Aerodrome Forecast
Issued by NWS

Home | Current Version | Previous Version | Text Only | Print | Product List | Glossary On
Versions: 1 2 3 4 5 6 7 8 9 10 11 12 13 14 15 16 17 18 19 20 21 22 23 24 25 26
000
FTAK31 PAFA 282347 AAA
TAFATA
TAF AMD
PATA 282347Z 2900/2924 02005KT P6SM VCTS FEW040CB BKN070
     FM290300 07005KT P6SM SCT060 BKN150
     FM290700 VRB04KT P6SM FEW250=

USA.gov is the U.S. government's official web portal to all federal, state and local government web resources and services.